Terminal Aerodrome Forecast
Issued by NWS Jackson, KY

Home | Current Version | Previous Version | Text Only | Print | Product List | Glossary On
Versions: 1 2 3 4 5 6 7 8 9 10 11 12 13 14 15 16 17
000
FTUS43 KJKL 010005 AAA
TAFLOZ
TAF AMD
KLOZ 010005Z 0100/0124 VRB03KT P6SM BKN100
     FM011000 VRB03KT P6SM VCSH BKN030
     FM011300 22006KT P6SM VCSH BKN022=

USA.gov is the U.S. government's official web portal to all federal, state and local government web resources and services.